Ana Sayfa
METAR-TAF:

METAR-TAF

Havaalanları :

Ağrotur, Kıbrıs

Enlem: 34-35N, Boylam: 032-59E, yükseklik: 23 m

Güncel hava durumu gözlemi

Rapor saat 23:50 UTC de 38 dakika önce yapıldı.
Rüzgar batı/kuzeybatıdan 5 kt
Sıcaklık 11°C
Nem 76%
Basınç 1016 hPa
Görüş mesafesi 10 km veya daha fazla
1500 m altında bulut yok ve kümülonimbus yok

METAR: LCRA 252350Z 29005KT CAVOK 11/07 Q1016 NOSIG

Saat: 02:28 (00:28 UTC)

Tahmin

Rapor saat 22:12 UTC de 2 saat ve 16 dakika önce yapıldı.
Ayın 26'si saat 00 UTC'den ayın 26'si saat 18 UTC'ye kadar geçerli Tahmin
Rüzgar batı/kuzeybatıdan 7 kt
Görüş mesafesi 10 km veya daha fazla
1500 m altında bulut yok ve kümülonimbus yok
Dönüşüyor
ayın 26'si saat 09 UTC'den ayın 26'si saat 12 UTC'ye kadar
Rüzgar batıdan 15 kt

TAF: LCRA 252212Z 2600/2618 30007KT CAVOK BECMG 2609/2612 26015KT

4.000'den fazla havaalanı için hava durumu gözlemleri ve tahminleri (METAR ve TAF raporları).

Kullanılabilir istasyonlar harita üzerinde sarı ve kırmızı noktalarla gösterilir.

İstasyonun adını görmek için fareyi noktanın üzerinde gezdirin.

Sonrasında hava gözlem ve tahminlerini görmek için tıklayın.

Haritayı değiştirmek için: yaklaştırmak için siyah artı işaretli yeşil düğmeye ve uzaklaştırmak için de eksi işaretli düğmeye hızla tıklayın; bitişik haritalar için yeşil okları kullanın.


METAR-TAF: